Accueil
METAR-TAF:

METAR-TAF

Aéroports :

Adıyaman, Turquie

latitude: 37-43-54N, longitude: 38-28-08E, altitude: 675 m

Observation

Le bulletin a été fait il y a 3 heures et 40 minutes, à 12:50 UTC
Vent 9 kt de nord
Température 14°C
Humidité 44%
Pression 1010 hPa
Visibilité 10 km ou plus
Nuages épars à une hauteur de 4000 ft
Nuages fragmentés à une hauteur de 10000 ft

METAR: LTCP 221250Z 36009KT 9999 SCT040 BKN100 14/02 Q1010

Heure: 19:30 (16:30 UTC)

Prévision

Le bulletin a été fait il y a 2 heures et 50 minutes, à 13:40 UTC
Prévision valable du 22 à 15 UTC au 22 à 24 UTC
Vent 9 kt de nord/nord-ouest
Visibilité 10 km ou plus
Nuages épars à une hauteur de 4000 ft
Nuages fragmentés à une hauteur de 10000 ft

TAF: LTCP 221340Z 2215/2224 34009KT 9999 SCT040 BKN100

Observations et prévisions météorologiques de plus de 4000 aéroports (messages METAR et TAF).

Les stations disponibles sont représentées par des disques jaunes et rouges sur la carte.

Passer la souris dessus pour voir le nom de la station.

Cliquer dessus pour voir les observations et prévisions météorologiques.

Pour changer de carte: cliquez sur les boutons verts avec une croix noire pour zoomer, sur le bouton vert avec un tiret pour effectuer un zoom arrière, ou sur les flèches vertes pour les cartes adjacentes.


METAR-TAF: